Time;durP1;ratioP1;P1;durP2;ratioP2;P2;SDS_P1;SDS_P2;PMS_P1;PMS_P2;Temp;Humidity;BMP_temperature;BMP_pressure;BME280_temperature;BME280_humidity;BME280_pressure;Samples;Min_cycle;Max_cycle;Signal;HPM_P1;HPM_P2
2022/08/16 00:01:44;;;;;;;8.30;6.40;;;18.10;99.90;;;;;;5028926;28;20025;-55
2022/08/16 00:04:10;;;;;;;10.20;6.35;;;18.00;99.90;;;;;;5025597;28;20087;-56
2022/08/16 00:06:36;;;;;;;12.90;7.13;;;18.00;99.90;;;;;;5033015;28;20045;-56
2022/08/16 00:09:01;;;;;;;9.93;6.25;;;18.00;99.90;;;;;;5025607;28;20446;-57
2022/08/16 00:11:27;;;;;;;9.73;6.10;;;18.00;99.90;;;;;;5023835;28;20029;-58
2022/08/16 00:13:52;;;;;;;10.07;6.50;;;18.10;99.90;;;;;;5025819;28;20118;-58
2022/08/16 00:16:18;;;;;;;8.82;6.18;;;18.10;99.90;;;;;;5029434;28;20029;-56
2022/08/16 00:18:44;;;;;;;9.30;5.97;;;18.10;99.90;;;;;;5023459;28;20038;-55
2022/08/16 00:21:10;;;;;;;13.80;5.85;;;18.00;99.90;;;;;;5028312;28;21947;-58
2022/08/16 00:23:36;;;;;;;9.93;6.00;;;18.00;99.90;;;;;;5024658;28;20057;-56
2022/08/16 00:26:01;;;;;;;10.90;5.78;;;18.10;99.90;;;;;;5029658;28;20075;-58
2022/08/16 00:28:27;;;;;;;7.35;5.43;;;18.00;99.90;;;;;;5023878;28;20037;-57
2022/08/16 00:30:52;;;;;;;11.88;6.28;;;18.00;99.90;;;;;;5026135;28;20390;-54
2022/08/16 00:33:18;;;;;;;9.73;5.82;;;18.00;99.90;;;;;;5028291;28;20040;-54
2022/08/16 00:35:44;;;;;;;11.55;6.20;;;18.00;99.90;;;;;;5022095;28;20024;-52
2022/08/16 00:38:09;;;;;;;9.88;5.45;;;18.00;99.90;;;;;;5031692;28;20096;-55
2022/08/16 00:40:45;;;;;;;12.30;5.93;;;17.90;99.90;;;;;;5029498;28;20091;-55
2022/08/16 00:43:15;;;;;;;9.18;5.80;;;17.80;99.90;;;;;;5038814;28;20083;-52
2022/08/16 00:45:55;;;;;;;8.63;5.97;;;17.80;99.90;;;;;;5034473;28;20419;-58
2022/08/16 00:48:20;;;;;;;8.55;5.28;;;17.70;99.90;;;;;;5046106;28;20039;-59
2022/08/16 00:50:46;;;;;;;13.30;6.22;;;17.70;99.90;;;;;;5029992;28;20422;-54
2022/08/16 00:53:14;;;;;;;10.10;5.93;;;17.70;99.90;;;;;;5029076;28;20021;-57
2022/08/16 00:55:45;;;;;;;8.43;5.85;;;17.70;99.90;;;;;;5024903;28;20064;-59
2022/08/16 00:58:11;;;;;;;8.52;6.05;;;17.70;99.90;;;;;;5032868;28;20076;-55
2022/08/16 01:00:36;;;;;;;8.73;6.18;;;17.70;99.90;;;;;;5015091;28;20042;-58
2022/08/16 01:03:07;;;;;;;13.90;5.78;;;17.70;99.90;;;;;;5030628;28;20045;-55
2022/08/16 01:05:34;;;;;;;8.85;5.80;;;17.60;99.90;;;;;;5029157;28;20100;-57
2022/08/16 01:08:01;;;;;;;8.38;5.72;;;17.60;99.90;;;;;;5030452;28;20108;-58
2022/08/16 01:10:30;;;;;;;11.30;6.05;;;17.60;99.90;;;;;;5033274;28;20029;-55
2022/08/16 01:12:56;;;;;;;13.48;5.93;;;17.60;99.90;;;;;;5033377;28;20060;-57
2022/08/16 01:15:23;;;;;;;14.75;5.93;;;17.60;99.90;;;;;;5031388;28;20017;-58
2022/08/16 01:17:49;;;;;;;8.07;6.07;;;17.70;99.90;;;;;;5013615;28;20041;-58
2022/08/16 01:20:17;;;;;;;10.68;5.13;;;17.60;99.90;;;;;;5037569;28;20061;-54
2022/08/16 01:23:21;;;;;;;13.38;6.45;;;17.70;99.90;;;;;;5033230;28;20545;-53
2022/08/16 01:25:51;;;;;;;10.80;5.63;;;17.70;99.90;;;;;;5044645;28;20040;-53
2022/08/16 01:28:19;;;;;;;10.07;5.60;;;17.70;99.90;;;;;;5051720;28;20013;-54
2022/08/16 01:30:49;;;;;;;14.10;4.90;;;17.70;99.90;;;;;;5038621;28;20053;-56
2022/08/16 01:33:15;;;;;;;9.20;5.68;;;17.70;99.90;;;;;;5048950;28;20037;-57
2022/08/16 01:35:48;;;;;;;6.50;5.40;;;17.70;99.90;;;;;;5036257;28;20030;-56
2022/08/16 01:38:19;;;;;;;11.63;5.90;;;17.70;99.90;;;;;;5042522;28;20024;-54
2022/08/16 01:40:45;;;;;;;9.05;6.18;;;17.70;99.90;;;;;;5054499;28;20036;-56
2022/08/16 01:43:12;;;;;;;9.98;6.07;;;17.70;99.90;;;;;;5036371;28;20041;-57
2022/08/16 01:45:37;;;;;;;8.65;6.07;;;17.60;99.90;;;;;;5023433;28;20053;-57
2022/08/16 01:48:03;;;;;;;7.63;5.63;;;17.50;99.90;;;;;;5036293;28;20053;-56
2022/08/16 01:50:29;;;;;;;11.25;5.97;;;17.40;99.90;;;;;;5029459;28;20479;-53
2022/08/16 01:52:55;;;;;;;9.65;5.85;;;17.40;99.90;;;;;;5036424;28;20098;-52
2022/08/16 01:55:22;;;;;;;9.23;5.88;;;17.30;99.90;;;;;;5034906;28;20083;-58
2022/08/16 01:57:48;;;;;;;8.68;6.43;;;17.20;99.90;;;;;;5031172;28;20432;-58
2022/08/16 02:00:14;;;;;;;9.43;6.47;;;17.20;99.90;;;;;;5031793;28;20175;-55
2022/08/16 02:02:42;;;;;;;11.07;5.50;;;17.20;99.90;;;;;;5031748;28;20499;-58
2022/08/16 02:05:07;;;;;;;10.60;7.32;;;17.20;99.90;;;;;;5027181;28;20119;-59
2022/08/16 02:07:33;;;;;;;11.75;6.57;;;17.10;99.90;;;;;;5026741;28;20060;-59
2022/08/16 02:09:59;;;;;;;15.57;6.85;;;17.20;99.90;;;;;;5033118;28;20052;-56
2022/08/16 02:12:26;;;;;;;10.27;6.18;;;17.10;99.90;;;;;;5040811;28;20116;-59
2022/08/16 02:14:51;;;;;;;8.88;6.70;;;17.10;99.90;;;;;;5033324;28;20028;-57
2022/08/16 02:17:17;;;;;;;14.05;7.13;;;17.00;99.90;;;;;;5013614;28;20421;-57
2022/08/16 02:19:44;;;;;;;11.88;6.85;;;17.00;99.90;;;;;;5025160;28;20457;-56
2022/08/16 02:22:15;;;;;;;11.48;6.88;;;17.00;99.90;;;;;;5029582;28;20033;-59
2022/08/16 02:24:41;;;;;;;13.77;7.22;;;17.00;99.90;;;;;;5035734;28;20036;-59
2022/08/16 02:27:06;;;;;;;13.27;7.03;;;17.00;99.90;;;;;;5032300;28;20021;-59
2022/08/16 02:29:32;;;;;;;8.93;6.22;;;16.90;99.90;;;;;;5033812;28;20112;-57
2022/08/16 02:31:58;;;;;;;17.95;6.55;;;16.90;99.90;;;;;;5031199;28;20030;-58
2022/08/16 02:34:23;;;;;;;8.15;5.53;;;16.90;99.90;;;;;;5033265;28;20076;-55
2022/08/16 02:36:49;;;;;;;10.20;6.38;;;17.00;99.90;;;;;;5032465;28;20025;-58
2022/08/16 02:39:16;;;;;;;9.27;6.15;;;16.90;99.90;;;;;;5036090;28;20032;-58
2022/08/16 02:41:45;;;;;;;25.33;6.15;;;16.90;99.90;;;;;;5031807;28;20021;-59
2022/08/16 02:44:12;;;;;;;7.72;5.80;;;16.90;99.90;;;;;;5031328;28;20072;-59
2022/08/16 02:46:38;;;;;;;17.00;6.20;;;16.90;99.90;;;;;;5035973;28;20028;-59
2022/08/16 02:49:05;;;;;;;10.77;5.75;;;16.80;99.90;;;;;;5026361;28;20104;-56
2022/08/16 02:51:31;;;;;;;12.20;6.68;;;16.80;99.90;;;;;;5037510;28;20028;-58
2022/08/16 02:53:57;;;;;;;12.57;6.18;;;16.80;99.90;;;;;;5030583;28;20041;-58
2022/08/16 02:56:22;;;;;;;10.60;6.30;;;16.80;99.90;;;;;;5016653;28;20100;-56
2022/08/16 02:58:50;;;;;;;10.52;6.20;;;16.90;99.90;;;;;;5055976;22;20070;-58
2022/08/16 03:01:22;;;;;;;12.20;6.88;;;16.90;99.90;;;;;;5031026;28;20380;-57
2022/08/16 03:03:48;;;;;;;13.15;6.13;;;16.80;99.90;;;;;;5037362;28;20112;-55
2022/08/16 03:06:19;;;;;;;10.88;6.82;;;16.80;99.90;;;;;;5031596;28;20173;-60
2022/08/16 03:08:48;;;;;;;11.55;6.53;;;16.80;99.90;;;;;;5042694;28;20348;-61
2022/08/16 03:11:17;;;;;;;9.63;6.05;;;16.80;99.90;;;;;;5039638;28;20640;-57
2022/08/16 03:13:47;;;;;;;11.32;6.70;;;16.80;99.90;;;;;;5029457;28;20068;-60
2022/08/16 03:16:13;;;;;;;10.07;6.05;;;16.70;99.90;;;;;;5033747;28;20506;-59
2022/08/16 03:18:40;;;;;;;11.73;7.00;;;16.70;99.90;;;;;;5037212;28;20521;-60
2022/08/16 03:21:06;;;;;;;11.95;6.18;;;16.60;99.90;;;;;;5046313;28;20236;-59
2022/08/16 03:23:32;;;;;;;12.23;5.90;;;16.50;99.90;;;;;;5039272;28;20022;-58
2022/08/16 03:25:58;;;;;;;12.57;6.10;;;16.60;99.90;;;;;;5039014;28;20225;-59
2022/08/16 03:28:24;;;;;;;9.27;6.25;;;16.60;99.90;;;;;;5032239;28;20403;-60
2022/08/16 03:30:49;;;;;;;8.43;5.65;;;16.70;99.90;;;;;;5037040;28;20071;-60
2022/08/16 03:33:15;;;;;;;11.65;6.47;;;16.70;99.90;;;;;;5040600;28;20021;-58
2022/08/16 03:35:41;;;;;;;13.10;7.30;;;16.70;99.90;;;;;;5036065;28;20034;-58
2022/08/16 03:38:10;;;;;;;13.98;6.65;;;16.60;99.90;;;;;;5031922;28;20025;-60
2022/08/16 03:40:36;;;;;;;9.50;5.88;;;16.70;99.90;;;;;;5037552;28;20120;-60
2022/08/16 03:43:04;;;;;;;12.82;6.70;;;16.70;99.90;;;;;;5038687;28;20021;-60
2022/08/16 03:45:32;;;;;;;10.65;5.85;;;16.70;99.90;;;;;;5033741;28;20014;-59
2022/08/16 03:47:58;;;;;;;9.80;6.13;;;16.60;99.90;;;;;;5035649;28;20037;-58
2022/08/16 03:50:23;;;;;;;10.27;5.40;;;16.60;99.90;;;;;;5041224;28;20079;-58
2022/08/16 03:52:49;;;;;;;11.43;5.35;;;16.60;99.90;;;;;;5034595;28;20022;-58
2022/08/16 03:55:15;;;;;;;11.23;5.65;;;16.60;99.90;;;;;;5044185;28;20040;-59
2022/08/16 03:57:40;;;;;;;11.02;6.10;;;16.60;99.90;;;;;;5039544;28;20033;-59
2022/08/16 04:00:13;;;;;;;14.65;6.25;;;16.70;99.90;;;;;;5041176;28;20037;-60
2022/08/16 04:02:43;;;;;;;13.25;5.90;;;16.60;99.90;;;;;;5034711;28;20013;-59
2022/08/16 04:05:10;;;;;;;8.27;5.30;;;16.70;99.90;;;;;;5039185;28;20029;-60
2022/08/16 04:07:36;;;;;;;9.25;5.60;;;16.60;99.90;;;;;;5038271;28;20108;-59
2022/08/16 04:10:04;;;;;;;7.05;4.95;;;16.60;99.90;;;;;;5037767;28;20059;-59
2022/08/16 04:12:30;;;;;;;8.25;4.95;;;16.60;99.90;;;;;;5031141;28;20091;-58
2022/08/16 04:14:56;;;;;;;13.57;5.70;;;16.60;99.90;;;;;;5040703;28;20017;-59
2022/08/16 04:17:21;;;;;;;6.70;4.53;;;16.60;99.90;;;;;;5032153;28;20479;-58
2022/08/16 04:19:47;;;;;;;11.98;6.05;;;16.70;99.90;;;;;;5033170;28;20032;-59
2022/08/16 04:22:13;;;;;;;12.43;7.15;;;16.60;99.90;;;;;;5036341;28;20070;-59
2022/08/16 04:24:38;;;;;;;9.70;5.35;;;16.60;99.90;;;;;;5029699;28;20017;-59
2022/08/16 04:27:04;;;;;;;10.48;5.32;;;16.60;99.90;;;;;;5042292;28;20367;-59
2022/08/16 04:29:30;;;;;;;8.82;5.22;;;16.60;99.90;;;;;;5038016;28;20043;-59
2022/08/16 04:31:56;;;;;;;8.70;5.43;;;16.70;99.90;;;;;;5023608;28;20021;-58
2022/08/16 04:34:23;;;;;;;9.35;5.68;;;16.70;99.90;;;;;;5036539;28;20036;-59
2022/08/16 04:36:49;;;;;;;5.72;4.78;;;16.70;99.90;;;;;;5033952;28;20013;-59
2022/08/16 04:39:14;;;;;;;7.35;5.22;;;16.60;99.90;;;;;;5032451;28;20080;-58
2022/08/16 04:41:40;;;;;;;8.60;6.00;;;16.60;99.90;;;;;;5038779;28;20029;-59
2022/08/16 04:44:06;;;;;;;8.00;5.68;;;16.60;99.90;;;;;;5041506;28;20024;-58
2022/08/16 04:46:31;;;;;;;9.70;5.28;;;16.60;99.90;;;;;;5035186;28;20429;-59
2022/08/16 04:48:58;;;;;;;7.97;5.32;;;16.50;99.90;;;;;;5032980;28;20096;-59
2022/08/16 04:51:23;;;;;;;8.68;5.55;;;16.50;99.90;;;;;;5037279;28;20016;-59
2022/08/16 04:53:49;;;;;;;9.73;5.53;;;16.50;99.90;;;;;;5037019;28;20025;-61
2022/08/16 04:56:17;;;;;;;8.77;5.22;;;16.50;99.90;;;;;;5035379;28;20025;-56
2022/08/16 04:58:43;;;;;;;10.10;5.78;;;16.60;99.90;;;;;;5036416;28;20032;-58
2022/08/16 05:01:08;;;;;;;6.30;5.05;;;16.60;99.90;;;;;;5032165;28;20018;-60
2022/08/16 05:03:34;;;;;;;9.00;5.25;;;16.60;99.90;;;;;;5024037;28;20100;-59
2022/08/16 05:05:59;;;;;;;9.07;4.88;;;16.70;99.90;;;;;;5022309;28;20029;-59
2022/08/16 05:08:27;;;;;;;6.97;4.85;;;16.80;99.90;;;;;;5026834;28;20091;-58
2022/08/16 05:10:53;;;;;;;8.40;5.90;;;16.90;99.90;;;;;;5028137;28;20046;-59
2022/08/16 05:13:19;;;;;;;6.53;5.03;;;16.90;99.90;;;;;;5033514;28;20021;-58
2022/08/16 05:15:46;;;;;;;12.07;5.38;;;16.90;99.90;;;;;;5026892;28;20540;-59
2022/08/16 05:18:12;;;;;;;8.23;5.30;;;17.00;99.90;;;;;;5032712;28;20025;-59
2022/08/16 05:20:38;;;;;;;9.95;5.00;;;17.00;99.90;;;;;;5030328;28;20142;-59
2022/08/16 05:23:04;;;;;;;10.30;5.45;;;17.10;99.90;;;;;;5037962;28;20535;-59
2022/08/16 05:25:30;;;;;;;8.80;5.10;;;17.10;99.90;;;;;;5036786;28;20061;-59
2022/08/16 05:27:56;;;;;;;7.78;5.00;;;17.20;99.90;;;;;;5038487;28;20026;-65
2022/08/16 05:30:22;;;;;;;6.82;6.10;;;17.20;99.90;;;;;;5033357;28;20036;-59
2022/08/16 05:32:48;;;;;;;8.75;5.72;;;17.30;99.90;;;;;;5036236;28;20088;-59
2022/08/16 05:35:15;;;;;;;6.50;5.00;;;17.30;99.90;;;;;;5031630;28;20068;-59
2022/08/16 05:37:42;;;;;;;7.68;5.15;;;17.30;99.90;;;;;;5032689;28;20027;-63
2022/08/16 05:40:10;;;;;;;7.80;4.60;;;17.40;99.90;;;;;;5006027;28;20565;-58
2022/08/16 05:42:36;;;;;;;7.90;4.95;;;17.50;99.90;;;;;;5031155;28;20564;-59
2022/08/16 05:45:03;;;;;;;16.38;5.93;;;17.50;99.90;;;;;;5038389;28;20029;-57
2022/08/16 05:47:29;;;;;;;9.40;4.10;;;17.60;99.90;;;;;;5031533;28;20084;-58
2022/08/16 05:49:54;;;;;;;7.63;4.90;;;17.70;99.90;;;;;;5045389;28;20025;-56
2022/08/16 05:52:20;;;;;;;13.98;5.80;;;17.70;99.90;;;;;;5044036;28;20384;-58
2022/08/16 05:54:45;;;;;;;8.45;4.88;;;17.80;99.90;;;;;;5032380;28;20479;-58
2022/08/16 05:57:11;;;;;;;12.77;6.07;;;17.90;99.90;;;;;;5032106;28;20033;-58
2022/08/16 05:59:37;;;;;;;8.00;5.63;;;18.00;99.90;;;;;;5048079;28;20029;-57
2022/08/16 06:02:04;;;;;;;9.82;5.50;;;18.00;99.90;;;;;;5025591;28;20018;-57
2022/08/16 06:04:30;;;;;;;13.48;5.32;;;18.10;99.90;;;;;;5037310;28;20175;-60
2022/08/16 06:06:56;;;;;;;12.05;5.10;;;18.10;99.90;;;;;;5030117;28;20073;-57
2022/08/16 06:09:22;;;;;;;14.75;6.13;;;18.20;99.90;;;;;;5041571;28;20022;-57
2022/08/16 06:11:47;;;;;;;13.40;5.50;;;18.30;99.90;;;;;;5051442;28;20031;-57
2022/08/16 06:14:13;;;;;;;16.55;6.57;;;18.40;99.90;;;;;;5041337;28;20096;-57
2022/08/16 06:16:39;;;;;;;13.18;5.53;;;18.50;99.90;;;;;;5035210;28;20378;-56
2022/08/16 06:19:05;;;;;;;9.55;5.47;;;18.60;99.90;;;;;;5052016;28;20493;-58
2022/08/16 06:21:30;;;;;;;14.32;6.35;;;18.70;99.90;;;;;;5026600;28;20029;-55
2022/08/16 06:23:56;;;;;;;7.50;5.72;;;18.80;99.90;;;;;;5015091;28;20056;-55
2022/08/16 06:26:22;;;;;;;12.05;5.80;;;18.90;99.90;;;;;;5047640;28;20021;-56
2022/08/16 06:28:48;;;;;;;9.73;6.22;;;18.90;99.90;;;;;;5052224;28;20029;-57
2022/08/16 06:31:15;;;;;;;10.77;5.00;;;19.00;99.90;;;;;;5052186;28;20090;-56
2022/08/16 06:33:41;;;;;;;8.93;5.90;;;19.10;99.90;;;;;;5040189;28;20487;-58
2022/08/16 06:36:07;;;;;;;11.75;6.35;;;19.20;99.90;;;;;;5046448;28;20048;-55
2022/08/16 06:38:34;;;;;;;9.50;5.47;;;19.30;99.90;;;;;;5030026;28;20140;-56
2022/08/16 06:41:08;;;;;;;6.93;5.35;;;19.40;99.90;;;;;;5051977;28;20052;-57
2022/08/16 06:43:33;;;;;;;9.32;5.38;;;19.50;99.90;;;;;;5033138;28;20125;-58
2022/08/16 06:46:02;;;;;;;15.35;7.35;;;19.60;99.90;;;;;;5037816;28;20097;-57
2022/08/16 06:48:27;;;;;;;14.70;5.75;;;19.70;99.90;;;;;;5051723;28;20021;-56
2022/08/16 06:50:53;;;;;;;14.73;5.50;;;19.80;99.90;;;;;;5051794;28;20104;-55
2022/08/16 06:53:19;;;;;;;9.85;5.53;;;19.90;99.90;;;;;;5042607;28;20018;-56
2022/08/16 06:55:45;;;;;;;10.75;5.75;;;20.00;99.90;;;;;;5031254;28;20521;-58
2022/08/16 06:58:11;;;;;;;12.88;6.68;;;20.10;99.90;;;;;;5051185;28;20033;-58
2022/08/16 07:00:37;;;;;;;15.77;7.45;;;20.20;99.90;;;;;;5051793;28;20597;-58
2022/08/16 07:03:05;;;;;;;16.15;5.97;;;20.30;99.90;;;;;;5051635;28;20019;-58
2022/08/16 07:05:31;;;;;;;11.18;5.10;;;20.40;99.90;;;;;;5051648;28;20102;-58
2022/08/16 07:07:57;;;;;;;12.40;5.50;;;20.50;99.90;;;;;;5045690;28;20554;-55
2022/08/16 07:10:24;;;;;;;12.15;5.95;;;20.60;99.90;;;;;;5035144;28;20049;-58
2022/08/16 07:12:50;;;;;;;13.40;5.78;;;20.70;99.90;;;;;;5042159;28;20040;-58
2022/08/16 07:15:17;;;;;;;12.82;5.85;;;20.80;99.90;;;;;;5050464;28;20108;-58
2022/08/16 07:17:43;;;;;;;9.40;5.03;;;20.90;99.90;;;;;;5050925;28;20395;-58
2022/08/16 07:20:11;;;;;;;10.23;5.53;;;21.00;99.90;;;;;;5050138;28;20053;-57
2022/08/16 07:22:37;;;;;;;5.82;4.70;;;21.20;99.90;;;;;;5046145;28;20045;-55
2022/08/16 07:25:05;;;;;;;13.23;5.78;;;21.20;99.90;;;;;;5047251;28;20475;-57
2022/08/16 07:27:30;;;;;;;6.53;4.10;;;21.30;99.90;;;;;;5050963;28;20051;-57
2022/08/16 07:29:56;;;;;;;11.35;5.00;;;21.30;99.90;;;;;;5050929;28;20025;-57
2022/08/16 07:32:22;;;;;;;7.03;4.70;;;21.30;99.90;;;;;;5051144;28;20021;-58
2022/08/16 07:34:47;;;;;;;9.25;4.55;;;21.40;99.90;;;;;;5043290;28;20490;-59
2022/08/16 07:37:17;;;;;;;7.28;4.53;;;21.50;99.90;;;;;;5037749;28;20017;-60
2022/08/16 07:39:43;;;;;;;16.92;4.30;;;21.50;99.90;;;;;;5050649;28;20495;-60
2022/08/16 07:42:09;;;;;;;11.25;4.80;;;21.70;99.90;;;;;;5050753;28;20025;-59
2022/08/16 07:44:34;;;;;;;8.32;4.68;;;21.70;99.90;;;;;;5050741;28;20044;-57
2022/08/16 07:47:00;;;;;;;5.38;4.05;;;21.70;99.90;;;;;;5050184;28;20118;-58
2022/08/16 07:49:26;;;;;;;5.10;4.13;;;21.80;99.90;;;;;;5051050;28;20107;-59
2022/08/16 07:51:51;;;;;;;8.00;4.93;;;21.90;99.90;;;;;;5039536;28;20037;-59
2022/08/16 07:54:18;;;;;;;10.25;4.75;;;22.00;99.90;;;;;;5051174;28;20033;-60
2022/08/16 07:56:44;;;;;;;6.78;4.30;;;22.10;99.90;;;;;;5049429;28;20470;-60
2022/08/16 07:59:09;;;;;;;11.95;4.47;;;22.20;99.90;;;;;;5044994;28;20043;-60
2022/08/16 08:01:37;;;;;;;15.15;4.70;;;22.30;99.90;;;;;;5050542;28;20131;-59
2022/08/16 08:04:03;;;;;;;7.30;4.40;;;22.30;99.90;;;;;;5050307;28;20104;-58
2022/08/16 08:06:31;;;;;;;9.10;4.13;;;22.40;99.90;;;;;;5043351;28;20075;-58
2022/08/16 08:08:58;;;;;;;7.75;4.90;;;22.60;99.90;;;;;;5021246;28;20056;-60
2022/08/16 08:11:24;;;;;;;14.55;4.40;;;22.60;99.90;;;;;;5025324;28;20029;-59
2022/08/16 08:13:51;;;;;;;7.50;4.72;;;22.70;99.90;;;;;;5050285;28;20060;-60
2022/08/16 08:16:20;;;;;;;9.93;6.00;;;22.80;99.90;;;;;;5021193;28;20025;-59
2022/08/16 08:18:46;;;;;;;8.23;4.90;;;22.80;99.90;;;;;;5050455;28;20552;-60
2022/08/16 08:21:12;;;;;;;6.57;4.53;;;22.90;99.90;;;;;;5048529;28;20021;-60
2022/08/16 08:23:37;;;;;;;6.45;4.78;;;23.00;99.90;;;;;;5030956;28;20022;-59
2022/08/16 08:26:03;;;;;;;8.07;4.45;;;23.10;99.90;;;;;;5031221;28;20088;-57
2022/08/16 08:28:30;;;;;;;7.07;4.60;;;23.20;99.90;;;;;;5031005;28;20032;-59
2022/08/16 08:31:00;;;;;;;12.18;5.22;;;23.20;99.90;;;;;;5030847;28;20025;-59
2022/08/16 08:33:25;;;;;;;9.73;5.50;;;23.30;99.90;;;;;;5030761;28;20361;-60
2022/08/16 08:35:54;;;;;;;6.85;4.78;;;23.40;99.90;;;;;;5029486;28;20033;-61
2022/08/16 08:38:22;;;;;;;7.88;5.15;;;23.50;99.90;;;;;;5047418;28;20017;-59
2022/08/16 08:40:47;;;;;;;9.88;5.90;;;23.60;99.90;;;;;;5049775;28;20014;-59
2022/08/16 08:43:13;;;;;;;11.00;5.60;;;23.70;99.90;;;;;;5049743;28;20017;-60
2022/08/16 08:45:40;;;;;;;12.15;6.40;;;23.80;99.90;;;;;;5049810;28;20396;-58
2022/08/16 08:48:07;;;;;;;8.40;5.65;;;23.80;99.90;;;;;;5047888;28;20467;-58
2022/08/16 08:50:33;;;;;;;10.32;5.00;;;23.90;99.90;;;;;;5039507;28;20422;-60
2022/08/16 08:53:00;;;;;;;8.55;5.93;;;24.00;99.90;;;;;;5049901;28;20021;-60
2022/08/16 08:55:26;;;;;;;7.65;5.75;;;24.10;99.90;;;;;;5049056;28;20016;-60
2022/08/16 08:57:52;;;;;;;13.60;7.53;;;24.10;99.90;;;;;;5049202;28;20100;-60
2022/08/16 09:00:21;;;;;;;12.90;6.88;;;24.10;99.90;;;;;;5070128;22;20127;-63
2022/08/16 09:02:48;;;;;;;14.50;6.13;;;24.10;99.90;;;;;;5047863;28;20257;-63
2022/08/16 09:05:15;;;;;;;11.07;6.47;;;24.20;99.90;;;;;;5028622;28;20025;-63
2022/08/16 09:07:41;;;;;;;9.35;6.28;;;24.30;99.90;;;;;;5031880;28;20029;-64
2022/08/16 09:10:08;;;;;;;9.20;5.78;;;24.40;99.90;;;;;;5031397;28;20025;-63
2022/08/16 09:12:33;;;;;;;12.32;5.70;;;24.50;99.90;;;;;;5026081;28;20483;-63
2022/08/16 09:14:59;;;;;;;10.23;5.72;;;24.70;99.90;;;;;;5031487;28;20406;-65
2022/08/16 09:17:25;;;;;;;9.63;5.22;;;24.80;99.90;;;;;;5031468;28;20115;-62
2022/08/16 09:19:54;;;;;;;8.07;5.18;;;24.90;99.90;;;;;;5014667;28;20045;-62
2022/08/16 09:22:20;;;;;;;8.93;5.22;;;25.00;99.90;;;;;;5031579;28;20025;-63
2022/08/16 09:24:46;;;;;;;9.82;5.25;;;25.10;99.90;;;;;;5031662;28;20025;-63
2022/08/16 09:27:11;;;;;;;10.38;6.00;;;25.20;99.90;;;;;;5049206;28;20484;-63
2022/08/16 09:29:37;;;;;;;12.82;6.18;;;25.50;99.90;;;;;;5031628;28;20473;-63
2022/08/16 09:32:03;;;;;;;9.23;6.05;;;25.40;99.90;;;;;;5031863;28;20078;-63
2022/08/16 09:34:28;;;;;;;12.63;6.18;;;25.40;99.90;;;;;;5030676;28;20106;-63
2022/08/16 09:36:56;;;;;;;10.20;6.55;;;25.50;99.90;;;;;;5031520;28;20033;-64
2022/08/16 09:39:23;;;;;;;8.48;6.18;;;25.50;99.90;;;;;;5049360;28;20517;-63
2022/08/16 09:41:50;;;;;;;7.57;5.50;;;25.60;99.90;;;;;;5031561;28;20029;-63
2022/08/16 09:44:19;;;;;;;8.32;5.40;;;25.80;99.90;;;;;;5052806;28;20106;-63
2022/08/16 09:46:45;;;;;;;8.85;5.38;;;26.00;99.90;;;;;;5053317;28;20025;-63
2022/08/16 09:49:11;;;;;;;8.93;6.00;;;26.30;99.90;;;;;;5034110;28;20028;-63
2022/08/16 09:51:37;;;;;;;11.10;5.53;;;26.50;99.90;;;;;;5035458;28;20025;-62
2022/08/16 09:54:03;;;;;;;8.80;5.93;;;26.50;99.90;;;;;;5018201;28;20025;-63
2022/08/16 09:56:34;;;;;;;11.40;5.78;;;26.50;99.90;;;;;;5052797;28;20027;-63
2022/08/16 09:59:02;;;;;;;10.80;6.30;;;26.60;99.90;;;;;;5033169;28;20510;-63
2022/08/16 10:01:29;;;;;;;15.07;5.90;;;26.90;99.90;;;;;;5052792;28;20043;-63
2022/08/16 10:03:56;;;;;;;12.57;6.65;;;27.00;99.90;;;;;;5052677;28;20044;-63
2022/08/16 10:06:23;;;;;;;10.55;5.88;;;27.30;99.90;;;;;;5034703;28;20048;-63
2022/08/16 10:08:49;;;;;;;12.27;5.95;;;27.40;99.90;;;;;;5053001;28;20029;-62
2022/08/16 10:13:59;;;;;;;8.77;5.82;;;27.60;99.90;;;;;;5033935;28;20032;-63
2022/08/16 10:16:25;;;;;;;14.27;6.05;;;27.50;99.90;;;;;;5052721;28;20021;-64
2022/08/16 10:18:51;;;;;;;12.40;6.22;;;27.50;99.90;;;;;;5051858;28;20021;-62
2022/08/16 10:21:16;;;;;;;9.95;6.25;;;27.50;99.90;;;;;;5031231;28;20013;-63
2022/08/16 10:23:43;;;;;;;8.07;5.25;;;27.50;99.90;;;;;;5035299;28;20029;-63
2022/08/16 10:26:09;;;;;;;8.63;4.68;;;27.70;99.90;;;;;;5017727;28;20059;-63
2022/08/16 10:28:35;;;;;;;6.88;5.25;;;28.10;99.90;;;;;;5028488;28;20029;-63
2022/08/16 10:31:02;;;;;;;7.25;5.18;;;28.40;99.90;;;;;;5035054;28;20489;-63
2022/08/16 10:33:28;;;;;;;9.88;4.80;;;28.40;99.90;;;;;;5034308;28;20487;-63
2022/08/16 10:35:54;;;;;;;8.40;4.22;;;28.60;99.90;;;;;;5034187;28;20082;-63
2022/08/16 10:38:20;;;;;;;7.70;5.05;;;28.70;99.90;;;;;;5018058;28;20430;-63
2022/08/16 10:40:46;;;;;;;11.05;4.88;;;28.50;99.90;;;;;;5018224;28;20028;-63
2022/08/16 10:43:12;;;;;;;9.02;5.03;;;28.80;99.90;;;;;;5034339;28;20479;-63
2022/08/16 10:45:39;;;;;;;8.40;4.70;;;28.80;99.90;;;;;;5052030;28;20064;-63
2022/08/16 10:48:09;;;;;;;10.63;5.00;;;29.00;99.90;;;;;;5033383;28;20445;-63
2022/08/16 10:50:35;;;;;;;9.60;4.38;;;29.20;99.90;;;;;;5030856;28;20037;-63
2022/08/16 10:53:05;;;;;;;7.53;4.85;;;29.10;99.90;;;;;;5051585;28;20040;-64
2022/08/16 10:55:35;;;;;;;10.43;5.80;;;29.20;99.90;;;;;;5001186;28;20035;-63
2022/08/16 10:58:10;;;;;;;7.90;4.78;;;29.50;99.90;;;;;;5018087;28;20025;-63
2022/08/16 11:00:39;;;;;;;9.18;5.38;;;29.70;99.90;;;;;;5043782;28;20426;-63
2022/08/16 11:03:06;;;;;;;15.80;4.72;;;30.00;99.90;;;;;;5033279;28;20078;-63
2022/08/16 11:05:37;;;;;;;11.85;5.50;;;30.40;99.90;;;;;;5034426;28;20025;-63
2022/08/16 11:08:06;;;;;;;6.80;5.47;;;30.30;99.90;;;;;;5034268;28;20119;-63
2022/08/16 11:10:38;;;;;;;18.75;6.43;;;30.30;99.90;;;;;;5030024;28;20103;-63
2022/08/16 11:13:05;;;;;;;11.25;5.70;;;30.10;99.90;;;;;;5031479;28;20032;-64
2022/08/16 11:15:32;;;;;;;10.48;5.63;;;30.30;99.90;;;;;;5013860;28;20052;-63
2022/08/16 11:17:57;;;;;;;8.63;5.55;;;29.50;99.90;;;;;;5012381;28;20028;-63
2022/08/16 11:20:23;;;;;;;6.72;4.93;;;29.20;99.90;;;;;;5017110;28;20021;-63
2022/08/16 11:22:50;;;;;;;12.38;6.22;;;29.50;99.90;;;;;;5051388;28;20061;-64
2022/08/16 11:25:19;;;;;;;10.93;5.82;;;29.60;99.90;;;;;;5017100;28;20025;-63
2022/08/16 11:27:46;;;;;;;10.02;6.00;;;29.30;99.90;;;;;;5046821;28;20036;-64
2022/08/16 11:30:14;;;;;;;7.68;5.22;;;30.00;99.90;;;;;;5032760;28;20124;-64
2022/08/16 11:32:43;;;;;;;12.80;5.47;;;30.30;99.90;;;;;;5051077;28;20441;-64
2022/08/16 11:35:12;;;;;;;8.02;5.15;;;30.50;99.90;;;;;;5050968;28;20110;-63
2022/08/16 11:37:39;;;;;;;7.82;5.00;;;30.80;99.90;;;;;;5033278;28;20025;-63
2022/08/16 11:40:06;;;;;;;12.90;5.72;;;31.10;99.90;;;;;;5032769;28;20020;-63
2022/08/16 11:42:32;;;;;;;9.20;5.05;;;31.50;99.90;;;;;;5033044;28;20040;-63
2022/08/16 11:44:57;;;;;;;8.70;5.05;;;31.40;99.10;;;;;;5016416;28;20037;-64
2022/08/16 11:47:23;;;;;;;10.02;5.18;;;31.30;98.90;;;;;;5050259;28;20031;-63
2022/08/16 11:49:50;;;;;;;11.50;5.25;;;31.30;98.80;;;;;;5016656;28;20037;-64
2022/08/16 11:52:16;;;;;;;7.85;6.00;;;31.20;98.10;;;;;;5047198;28;20026;-63
2022/08/16 11:54:43;;;;;;;6.63;4.57;;;31.10;98.90;;;;;;5033038;28;20449;-63
2022/08/16 11:57:10;;;;;;;9.43;4.72;;;31.30;97.90;;;;;;5050687;28;20040;-63
2022/08/16 11:59:37;;;;;;;10.18;4.72;;;31.50;99.20;;;;;;5050355;28;20025;-63
2022/08/16 12:02:05;;;;;;;7.72;5.13;;;31.20;98.10;;;;;;5048705;28;20028;-64
2022/08/16 12:04:32;;;;;;;13.50;5.60;;;30.60;98.20;;;;;;5029323;28;20057;-63
2022/08/16 12:06:59;;;;;;;8.52;4.60;;;30.60;99.30;;;;;;5050043;28;20033;-64
2022/08/16 12:09:25;;;;;;;8.55;5.15;;;30.30;99.90;;;;;;5009961;28;20044;-63
2022/08/16 12:11:51;;;;;;;10.90;4.68;;;30.10;99.90;;;;;;5032561;28;20060;-63
2022/08/16 12:14:16;;;;;;;7.28;5.57;;;30.30;98.80;;;;;;5032096;28;20078;-64
2022/08/16 12:16:42;;;;;;;7.93;4.60;;;30.10;99.10;;;;;;5032277;28;20084;-64
2022/08/16 12:19:09;;;;;;;9.65;5.50;;;30.30;99.80;;;;;;5032680;28;20031;-64
2022/08/16 12:21:35;;;;;;;6.90;4.95;;;30.20;99.90;;;;;;5049452;28;20515;-64
2022/08/16 12:24:01;;;;;;;8.70;5.22;;;30.20;98.50;;;;;;5048205;28;20570;-63
2022/08/16 12:26:27;;;;;;;7.90;5.30;;;30.20;99.50;;;;;;5030106;28;20044;-64
2022/08/16 12:28:52;;;;;;;7.63;5.10;;;30.10;99.20;;;;;;5014819;28;20499;-63
2022/08/16 12:31:20;;;;;;;6.32;4.78;;;30.30;99.30;;;;;;5032104;28;20032;-64
2022/08/16 12:33:46;;;;;;;8.98;5.22;;;30.70;99.60;;;;;;5031860;28;20162;-63
2022/08/16 12:36:12;;;;;;;5.35;4.30;;;30.80;98.90;;;;;;5015248;28;20112;-63
2022/08/16 12:38:38;;;;;;;10.38;5.40;;;30.90;99.60;;;;;;5031481;28;20024;-64
2022/08/16 12:41:04;;;;;;;12.73;5.20;;;31.20;96.80;;;;;;5013665;28;20036;-64
2022/08/16 12:43:30;;;;;;;8.05;5.28;;;31.10;98.10;;;;;;5016027;28;20454;-63